Terminal Aerodrome Forecast
Issued by NWS Wilmington, NC

Home | Current Version | Previous Version | Text Only | Print | Product List | Glossary On
Versions: 1 2 3 4 5 6 7 8 9 10 11 12
000
FTUS42 KILM 250500
TAFFLO
TAF
KFLO 250522Z 2506/2606 00000KT P6SM SKC
     FM250800 00000KT 4SM BR SKC
      TEMPO 2509/2511 2SM BR SCT002
     FM251300 29005KT P6SM SKC=

USA.gov is the U.S. government's official web portal to all federal, state and local government web resources and services.